createdAt,value
2019-03-19T00:01:01.448Z,91.80
2019-03-19T00:02:54.561Z,91.70
2019-03-19T00:04:48.027Z,91.90
2019-03-19T00:06:41.049Z,91.70
2019-03-19T00:08:33.957Z,91.70
2019-03-19T00:10:26.696Z,91.60
2019-03-19T00:12:20.037Z,91.40
2019-03-19T00:14:12.360Z,91.50
2019-03-19T00:16:06.075Z,91.10
2019-03-19T00:17:59.057Z,91.30
2019-03-19T00:19:52.494Z,91.60
2019-03-19T00:21:44.911Z,91.70
2019-03-19T00:23:38.032Z,91.80
2019-03-19T00:25:30.694Z,91.60
2019-03-19T00:27:23.921Z,91.80
2019-03-19T00:29:17.170Z,91.60
2019-03-19T00:31:09.563Z,91.70
2019-03-19T00:33:02.915Z,91.90
2019-03-19T00:34:55.079Z,91.70
2019-03-19T00:36:47.960Z,91.70
2019-03-19T00:38:41.303Z,91.80
2019-03-19T00:40:33.581Z,92.00
2019-03-19T00:42:26.524Z,92.10
2019-03-19T00:44:19.257Z,92.10
2019-03-19T00:46:12.342Z,92.00
2019-03-19T00:48:05.144Z,92.20
2019-03-19T00:49:58.258Z,92.00
2019-03-19T00:51:51.014Z,92.00
2019-03-19T00:53:43.834Z,91.70
2019-03-19T00:55:41.018Z,92.00
2019-03-19T00:57:31.849Z,91.80
2019-03-19T00:59:24.798Z,92.00
2019-03-19T01:01:17.099Z,92.10
2019-03-19T01:03:10.405Z,92.10
2019-03-19T01:05:04.807Z,91.90
2019-03-19T01:06:57.803Z,91.90
2019-03-19T01:08:50.053Z,91.80
2019-03-19T01:10:43.126Z,92.10
2019-03-19T01:12:36.074Z,91.80
2019-03-19T01:14:28.816Z,91.70
2019-03-19T01:16:21.770Z,91.70
2019-03-19T01:18:14.952Z,91.80
2019-03-19T01:20:11.869Z,91.60
2019-03-19T01:22:04.796Z,91.40
2019-03-19T01:23:57.961Z,91.30
2019-03-19T01:25:55.639Z,91.40
2019-03-19T01:27:45.854Z,91.50
2019-03-19T01:29:39.186Z,91.70
2019-03-19T01:31:32.416Z,92.00
2019-03-19T01:33:26.021Z,92.20
2019-03-19T01:35:19.877Z,92.10
2019-03-19T01:37:12.921Z,92.20
2019-03-19T01:39:06.971Z,92.10
2019-03-19T01:40:59.967Z,92.00
2019-03-19T01:42:53.144Z,92.10
2019-03-19T01:44:45.463Z,92.30
2019-03-19T01:46:38.581Z,92.10
2019-03-19T01:48:30.823Z,92.20
2019-03-19T01:50:23.834Z,92.00
2019-03-19T01:52:16.072Z,91.90
2019-03-19T01:54:09.012Z,91.90
2019-03-19T01:56:05.378Z,92.00
2019-03-19T01:57:58.220Z,92.10
2019-03-19T01:59:50.968Z,92.30
2019-03-19T02:01:45.192Z,92.30
2019-03-19T02:03:39.584Z,91.80
2019-03-19T02:05:32.381Z,92.20
2019-03-19T02:07:25.043Z,92.00
2019-03-19T02:09:18.058Z,92.00
2019-03-19T02:11:10.383Z,92.10
2019-03-19T02:13:03.407Z,92.20
2019-03-19T02:14:55.618Z,92.30
2019-03-19T02:16:48.843Z,92.20
2019-03-19T02:18:41.644Z,92.40
2019-03-19T02:20:34.900Z,92.60
2019-03-19T02:22:27.749Z,92.40
2019-03-19T02:24:20.448Z,92.70
2019-03-19T02:26:16.756Z,92.40
2019-03-19T02:28:11.015Z,92.80
2019-03-19T02:30:06.858Z,92.30
2019-03-19T02:31:59.821Z,92.30
2019-03-19T02:33:53.116Z,92.30
2019-03-19T02:35:45.351Z,92.40
2019-03-19T02:37:38.650Z,92.40
2019-03-19T02:39:31.595Z,92.10
2019-03-19T02:41:23.840Z,92.10
2019-03-19T02:43:16.802Z,92.20
2019-03-19T02:45:09.834Z,92.10
2019-03-19T02:47:02.857Z,92.00
2019-03-19T02:48:55.134Z,92.10
2019-03-19T02:50:48.043Z,92.10
2019-03-19T02:52:40.977Z,91.90
2019-03-19T02:54:34.316Z,91.80
2019-03-19T02:56:33.069Z,92.00
2019-03-19T02:58:22.063Z,92.00
2019-03-19T03:00:19.292Z,92.10
2019-03-19T03:02:12.521Z,92.20
2019-03-19T03:04:05.753Z,91.90
2019-03-19T03:05:59.038Z,91.80
2019-03-19T03:07:52.190Z,91.80
2019-03-19T03:09:45.552Z,91.80
2019-03-19T03:11:38.831Z,91.70
2019-03-19T03:13:32.644Z,91.60
2019-03-19T03:15:25.836Z,91.90
2019-03-19T03:17:19.130Z,91.90
2019-03-19T03:19:12.243Z,91.60
2019-03-19T03:21:04.995Z,91.60
2019-03-19T03:22:58.370Z,91.80
2019-03-19T03:24:51.578Z,91.80
2019-03-19T03:26:47.968Z,91.90
2019-03-19T03:28:39.885Z,92.10
2019-03-19T03:30:33.211Z,91.90
2019-03-19T03:32:25.505Z,91.90
2019-03-19T03:34:18.465Z,92.10
2019-03-19T03:36:11.564Z,92.40
2019-03-19T03:38:04.885Z,91.90
2019-03-19T03:39:58.255Z,92.10
2019-03-19T03:41:50.454Z,91.80
2019-03-19T03:43:43.115Z,91.80
2019-03-19T03:45:35.377Z,92.00
2019-03-19T03:47:28.509Z,92.00
2019-03-19T03:49:21.890Z,91.80
2019-03-19T03:51:14.718Z,92.10
2019-03-19T03:53:07.512Z,91.90
2019-03-19T03:55:01.239Z,91.90
2019-03-19T03:57:01.714Z,91.60
2019-03-19T03:59:00.083Z,91.80
2019-03-19T04:00:44.253Z,91.60
2019-03-19T04:02:37.344Z,91.30
2019-03-19T04:04:30.709Z,91.30
2019-03-19T04:06:23.762Z,91.50
2019-03-19T04:08:16.648Z,91.50
2019-03-19T04:10:10.591Z,91.40
2019-03-19T04:12:03.711Z,91.40
2019-03-19T04:13:57.350Z,91.80
2019-03-19T04:15:50.658Z,91.30
2019-03-19T04:17:43.835Z,91.20
2019-03-19T04:19:37.338Z,91.30
2019-03-19T04:21:29.614Z,91.10
2019-03-19T04:23:22.560Z,91.20
2019-03-19T04:25:15.460Z,90.90
2019-03-19T04:27:16.019Z,91.10
2019-03-19T04:29:02.752Z,90.90
2019-03-19T04:30:56.354Z,90.80
2019-03-19T04:32:49.802Z,91.10
2019-03-19T04:34:43.216Z,90.60
2019-03-19T04:36:36.466Z,90.60
2019-03-19T04:38:29.743Z,90.50
2019-03-19T04:40:22.434Z,90.50
2019-03-19T04:42:15.233Z,90.50
2019-03-19T04:44:07.455Z,90.60
2019-03-19T04:46:00.431Z,90.70
2019-03-19T04:47:53.812Z,90.70
2019-03-19T04:49:46.495Z,90.20
2019-03-19T04:51:38.742Z,90.20
2019-03-19T04:53:31.719Z,90.20
2019-03-19T04:55:24.996Z,90.00
2019-03-19T04:57:26.324Z,90.30
2019-03-19T04:59:12.029Z,90.00
2019-03-19T05:01:04.292Z,90.00
2019-03-19T05:02:57.439Z,90.20
2019-03-19T05:04:49.744Z,90.20
2019-03-19T05:06:42.721Z,90.30
2019-03-19T05:08:35.018Z,90.20
2019-03-19T05:10:27.984Z,90.20
2019-03-19T05:12:21.229Z,90.50
2019-03-19T05:14:14.630Z,90.50
2019-03-19T05:16:07.794Z,90.20
2019-03-19T05:18:01.139Z,89.50
2019-03-19T05:19:54.362Z,89.40
2019-03-19T05:21:47.305Z,90.10
2019-03-19T05:23:40.655Z,90.30
2019-03-19T05:25:33.576Z,90.80
2019-03-19T05:27:36.850Z,90.30
2019-03-19T05:29:21.768Z,90.00
2019-03-19T05:31:14.845Z,89.80
2019-03-19T05:33:07.809Z,89.70
2019-03-19T05:35:00.127Z,90.00
2019-03-19T05:36:53.644Z,90.00
2019-03-19T05:38:46.817Z,90.00
2019-03-19T05:40:39.061Z,90.10
2019-03-19T05:42:32.536Z,89.70
2019-03-19T05:44:24.848Z,89.90
2019-03-19T05:46:17.816Z,90.00
2019-03-19T05:48:10.115Z,89.90
2019-03-19T05:50:03.088Z,90.10
2019-03-19T05:51:56.352Z,90.30
2019-03-19T05:53:49.477Z,90.40
2019-03-19T05:55:42.471Z,90.40
2019-03-19T05:57:36.531Z,90.00
2019-03-19T05:59:29.682Z,90.20
2019-03-19T06:01:21.914Z,89.00
2019-03-19T06:03:14.912Z,89.60
2019-03-19T06:05:10.836Z,89.60
2019-03-19T06:07:03.747Z,89.00
2019-03-19T06:08:57.344Z,89.30
2019-03-19T06:10:50.595Z,90.20
2019-03-19T06:12:43.550Z,89.60
2019-03-19T06:14:37.036Z,89.30
2019-03-19T06:16:30.524Z,88.30
2019-03-19T06:18:22.710Z,87.90
2019-03-19T06:20:18.064Z,89.00
2019-03-19T06:22:11.502Z,88.40
2019-03-19T06:24:04.848Z,89.30
2019-03-19T06:25:57.528Z,88.70
2019-03-19T06:27:59.787Z,87.80
2019-03-19T06:29:45.385Z,87.40
2019-03-19T06:31:38.655Z,86.60
2019-03-19T06:33:31.656Z,86.70
2019-03-19T06:35:25.153Z,86.70
2019-03-19T06:37:17.467Z,87.30
2019-03-19T06:39:10.457Z,87.10
2019-03-19T06:41:03.253Z,88.30
2019-03-19T06:42:56.145Z,87.90
2019-03-19T06:44:48.371Z,87.50
2019-03-19T06:46:41.378Z,87.10
2019-03-19T06:48:34.784Z,87.00
2019-03-19T06:50:28.186Z,87.40
2019-03-19T06:52:21.693Z,87.40
2019-03-19T06:54:15.066Z,88.60
2019-03-19T06:56:08.102Z,86.90
2019-03-19T06:58:10.501Z,86.30
2019-03-19T06:59:56.628Z,86.30
2019-03-19T07:01:48.880Z,84.90
2019-03-19T07:03:41.616Z,84.60
2019-03-19T07:05:33.987Z,85.00
2019-03-19T07:07:26.940Z,84.80
2019-03-19T07:09:20.367Z,83.60
2019-03-19T07:11:12.613Z,82.70
2019-03-19T07:13:05.896Z,81.80
2019-03-19T07:14:59.254Z,79.90
2019-03-19T07:16:51.548Z,78.30
2019-03-19T07:18:44.329Z,78.10
2019-03-19T07:20:37.097Z,79.70
2019-03-19T07:22:29.375Z,81.30
2019-03-19T07:24:22.695Z,80.30
2019-03-19T07:26:15.982Z,80.30
2019-03-19T07:28:09.499Z,80.90
2019-03-19T07:30:02.552Z,83.00
2019-03-19T07:31:56.137Z,82.50
2019-03-19T07:33:48.524Z,88.90
2019-03-19T07:35:41.213Z,89.00
2019-03-19T07:37:34.309Z,93.10
2019-03-19T07:39:27.885Z,85.10
2019-03-19T07:41:21.476Z,79.90
2019-03-19T07:43:14.820Z,80.00
2019-03-19T07:45:08.628Z,73.10
2019-03-19T07:47:02.396Z,83.50
2019-03-19T07:48:55.589Z,73.90
2019-03-19T07:50:48.520Z,75.60
2019-03-19T07:52:41.625Z,77.50
2019-03-19T07:54:35.118Z,77.50
2019-03-19T07:56:27.946Z,78.60
2019-03-19T07:58:32.638Z,80.40
2019-03-19T08:00:18.374Z,81.70
2019-03-19T08:02:11.221Z,80.90
2019-03-19T08:04:05.763Z,79.90
2019-03-19T08:05:59.162Z,79.40
2019-03-19T08:07:52.694Z,78.30
2019-03-19T08:09:46.110Z,77.80
2019-03-19T08:11:39.057Z,77.40
2019-03-19T08:13:32.106Z,76.10
2019-03-19T08:15:25.706Z,75.70
2019-03-19T08:17:19.285Z,75.00
2019-03-19T08:19:11.580Z,75.50
2019-03-19T08:21:04.882Z,74.00
2019-03-19T08:22:58.417Z,75.00
2019-03-19T08:24:51.827Z,74.40
2019-03-19T08:26:44.235Z,73.00
2019-03-19T08:28:37.643Z,73.20
2019-03-19T08:30:30.856Z,72.90
2019-03-19T08:32:23.956Z,72.30
2019-03-19T08:34:16.293Z,71.30
2019-03-19T08:36:09.820Z,71.70
2019-03-19T08:38:03.788Z,71.20
2019-03-19T08:39:56.887Z,71.40
2019-03-19T08:41:50.391Z,68.40
2019-03-19T08:43:43.597Z,67.40
2019-03-19T08:45:35.896Z,66.50
2019-03-19T08:47:28.900Z,66.40
2019-03-19T08:49:22.450Z,63.90
2019-03-19T08:51:15.751Z,65.90
2019-03-19T08:53:09.094Z,68.20
2019-03-19T08:55:02.360Z,71.10
2019-03-19T08:56:54.549Z,71.80
2019-03-19T08:58:47.675Z,73.60
2019-03-19T09:00:39.967Z,75.40
2019-03-19T09:02:33.184Z,76.40
2019-03-19T09:04:26.456Z,75.00
2019-03-19T09:06:21.093Z,75.60
2019-03-19T09:08:14.140Z,75.80
2019-03-19T09:10:08.464Z,74.70
2019-03-19T09:12:01.487Z,75.00
2019-03-19T09:13:53.942Z,75.30
2019-03-19T09:15:46.625Z,75.60
2019-03-19T09:17:39.056Z,75.40
2019-03-19T09:19:32.344Z,74.00
2019-03-19T09:21:25.114Z,71.70
2019-03-19T09:23:17.475Z,69.60
2019-03-19T09:25:11.687Z,67.40
2019-03-19T09:27:04.328Z,66.00
2019-03-19T09:28:57.337Z,65.60
2019-03-19T09:30:49.867Z,63.50
2019-03-19T09:32:44.216Z,63.50
2019-03-19T09:34:37.426Z,63.90
2019-03-19T09:36:31.037Z,65.10
2019-03-19T09:38:23.960Z,66.30
2019-03-19T09:40:21.683Z,66.00
2019-03-19T09:42:14.423Z,67.50
2019-03-19T09:44:06.816Z,68.20
2019-03-19T09:45:59.236Z,68.90
2019-03-19T09:47:51.236Z,68.10
2019-03-19T09:49:43.380Z,68.30
2019-03-19T09:51:35.554Z,69.40
2019-03-19T09:53:28.033Z,68.20
2019-03-19T09:55:20.203Z,67.80
2019-03-19T09:57:13.694Z,68.60
2019-03-19T09:59:07.835Z,69.20
2019-03-19T10:00:59.702Z,69.80
2019-03-19T10:02:51.963Z,69.00
2019-03-19T10:04:44.286Z,68.20
2019-03-19T10:06:36.881Z,67.50
2019-03-19T10:08:29.175Z,69.00
2019-03-19T10:10:21.762Z,68.50
2019-03-19T10:12:14.000Z,68.70
2019-03-19T10:14:06.546Z,68.30
2019-03-19T10:15:59.139Z,67.10
2019-03-19T10:17:51.517Z,66.20
2019-03-19T10:19:43.416Z,63.10
2019-03-19T10:21:35.282Z,63.20
2019-03-19T10:23:28.019Z,64.90
2019-03-19T10:25:20.448Z,65.60
2019-03-19T10:27:12.803Z,67.70
2019-03-19T10:29:05.064Z,67.10
2019-03-19T10:30:57.548Z,65.70
2019-03-19T10:32:49.780Z,65.50
2019-03-19T10:34:43.417Z,64.40
2019-03-19T10:36:35.484Z,64.40
2019-03-19T10:38:27.893Z,63.00
2019-03-19T10:40:20.324Z,62.70
2019-03-19T10:42:12.573Z,62.30
2019-03-19T10:44:04.932Z,60.70
2019-03-19T10:45:57.153Z,61.50
2019-03-19T10:47:49.667Z,61.10
2019-03-19T10:49:42.151Z,60.00
2019-03-19T10:51:35.151Z,59.50
2019-03-19T10:53:28.396Z,57.40
2019-03-19T10:55:20.932Z,56.20
2019-03-19T10:57:12.976Z,55.20
2019-03-19T10:59:04.965Z,54.90
2019-03-19T11:00:56.862Z,54.00
2019-03-19T11:02:49.641Z,53.10
2019-03-19T11:04:41.595Z,53.10
2019-03-19T11:06:33.921Z,53.50
2019-03-19T11:08:29.079Z,54.20
2019-03-19T11:10:22.637Z,55.60
2019-03-19T11:12:14.612Z,55.70
2019-03-19T11:14:06.811Z,50.80
2019-03-19T11:15:59.205Z,51.70
2019-03-19T11:17:51.420Z,52.50
2019-03-19T11:19:43.952Z,50.70
2019-03-19T11:21:36.022Z,51.60
2019-03-19T11:23:28.787Z,50.90
2019-03-19T11:25:25.523Z,49.80
2019-03-19T11:27:17.827Z,50.30
2019-03-19T11:29:10.020Z,50.30
2019-03-19T11:31:02.221Z,48.30
2019-03-19T11:32:56.106Z,47.80
2019-03-19T11:34:48.240Z,48.10
2019-03-19T11:36:40.724Z,49.10
2019-03-19T11:38:32.776Z,48.20
2019-03-19T11:40:25.981Z,52.10
2019-03-19T11:42:18.908Z,53.70
2019-03-19T11:44:11.341Z,54.60
2019-03-19T11:46:03.919Z,54.00
2019-03-19T11:47:56.257Z,54.70
2019-03-19T11:49:48.816Z,56.10
2019-03-19T11:51:41.095Z,54.50
2019-03-19T11:53:32.926Z,55.80
2019-03-19T11:55:25.682Z,55.70
2019-03-19T11:57:18.216Z,56.10
2019-03-19T11:59:10.126Z,56.40
2019-03-19T12:01:03.764Z,56.40
2019-03-19T12:02:56.210Z,57.30
2019-03-19T12:04:48.910Z,57.40
2019-03-19T12:06:41.333Z,56.30
2019-03-19T12:08:33.638Z,57.50
2019-03-19T12:10:25.690Z,55.60
2019-03-19T12:12:17.887Z,56.60
2019-03-19T12:14:10.344Z,55.80
2019-03-19T12:16:02.530Z,56.90
2019-03-19T12:17:54.681Z,56.80
2019-03-19T12:19:46.927Z,57.10
2019-03-19T12:21:38.957Z,57.10
2019-03-19T12:23:30.860Z,55.50
2019-03-19T12:25:23.294Z,53.70
2019-03-19T12:27:15.583Z,53.20
2019-03-19T12:29:07.856Z,53.40
2019-03-19T12:30:59.976Z,52.20
2019-03-19T12:32:52.139Z,51.80
2019-03-19T12:34:44.650Z,52.60
2019-03-19T12:36:37.076Z,53.60
2019-03-19T12:38:29.250Z,50.70
2019-03-19T12:40:22.232Z,48.90
2019-03-19T12:42:14.376Z,49.40
2019-03-19T12:44:06.809Z,50.90
2019-03-19T12:45:59.194Z,51.10
2019-03-19T12:47:51.872Z,52.50
2019-03-19T12:49:43.952Z,52.50
2019-03-19T12:51:36.919Z,52.60
2019-03-19T12:53:29.448Z,51.60
2019-03-19T12:55:21.680Z,52.40
2019-03-19T12:57:14.215Z,53.10
2019-03-19T12:59:06.641Z,50.60
2019-03-19T13:00:58.578Z,49.90
2019-03-19T13:02:51.153Z,50.20
2019-03-19T13:04:43.625Z,50.60
2019-03-19T13:06:35.588Z,51.90
2019-03-19T13:08:27.970Z,50.90
2019-03-19T13:10:21.584Z,49.20
2019-03-19T13:12:13.688Z,47.80
2019-03-19T13:14:06.452Z,47.20
2019-03-19T13:15:58.706Z,47.70
2019-03-19T13:17:51.549Z,46.80
2019-03-19T13:19:43.753Z,45.90
2019-03-19T13:21:36.407Z,47.10
2019-03-19T13:23:28.664Z,47.10
2019-03-19T13:25:21.812Z,46.10
2019-03-19T13:27:14.021Z,45.40
2019-03-19T13:29:06.319Z,46.00
2019-03-19T13:30:58.733Z,47.00
2019-03-19T13:32:50.887Z,47.30
2019-03-19T13:34:43.154Z,46.60
2019-03-19T13:36:35.485Z,46.80
2019-03-19T13:38:27.928Z,46.40
2019-03-19T13:40:20.397Z,46.30
2019-03-19T13:42:13.470Z,45.50
2019-03-19T13:44:05.663Z,45.20
2019-03-19T13:45:57.789Z,46.20
2019-03-19T13:47:49.953Z,46.20
2019-03-19T13:49:43.388Z,46.10
2019-03-19T13:51:36.140Z,46.00
2019-03-19T13:53:28.595Z,47.40
2019-03-19T13:55:21.703Z,47.50
2019-03-19T13:57:13.931Z,46.70
2019-03-19T13:59:07.562Z,46.00
2019-03-19T14:00:59.741Z,46.80
2019-03-19T14:02:53.081Z,47.40
2019-03-19T14:04:45.168Z,47.60
2019-03-19T14:06:37.383Z,47.80
2019-03-19T14:08:29.664Z,48.00
2019-03-19T14:10:23.260Z,48.10
2019-03-19T14:12:15.622Z,47.10
2019-03-19T14:14:07.504Z,47.60
2019-03-19T14:15:59.553Z,47.40
2019-03-19T14:17:52.328Z,48.00
2019-03-19T14:19:44.764Z,47.50
2019-03-19T14:21:36.760Z,48.70
2019-03-19T14:23:28.939Z,48.40
2019-03-19T14:25:21.239Z,48.60
2019-03-19T14:27:13.457Z,46.30
2019-03-19T14:29:05.732Z,45.40
2019-03-19T14:31:08.012Z,45.10
2019-03-19T14:32:51.694Z,46.10
2019-03-19T14:34:44.064Z,46.70
2019-03-19T14:36:36.397Z,46.20
2019-03-19T14:38:28.824Z,46.40
2019-03-19T14:40:21.483Z,45.20
2019-03-19T14:42:14.119Z,43.70
2019-03-19T14:44:05.960Z,41.20
2019-03-19T14:45:58.584Z,38.90
2019-03-19T14:47:52.355Z,37.20
2019-03-19T14:49:47.786Z,35.60
2019-03-19T14:51:38.335Z,32.90
2019-03-19T14:53:30.431Z,32.80
2019-03-19T14:55:22.788Z,33.60
2019-03-19T14:57:14.883Z,32.10
2019-03-19T14:59:07.059Z,33.90
2019-03-19T15:00:59.004Z,36.80
2019-03-19T15:02:51.328Z,37.90
2019-03-19T15:04:43.390Z,40.20
2019-03-19T15:06:35.575Z,40.70
2019-03-19T15:08:27.996Z,43.30
2019-03-19T15:10:20.870Z,43.80
2019-03-19T15:12:13.277Z,44.30
2019-03-19T15:14:05.329Z,43.30
2019-03-19T15:15:57.993Z,44.30
2019-03-19T15:17:50.209Z,42.60
2019-03-19T15:19:42.317Z,44.00
2019-03-19T15:21:34.195Z,46.20
2019-03-19T15:23:26.445Z,46.10
2019-03-19T15:25:18.874Z,44.90
2019-03-19T15:27:11.162Z,45.80
2019-03-19T15:29:03.673Z,43.40
2019-03-19T15:30:55.862Z,41.90
2019-03-19T15:32:48.120Z,41.40
2019-03-19T15:34:40.765Z,41.90
2019-03-19T15:36:33.103Z,41.90
2019-03-19T15:38:25.583Z,41.00
2019-03-19T15:40:20.850Z,44.00
2019-03-19T15:42:12.857Z,43.90
2019-03-19T15:44:05.009Z,44.30
2019-03-19T15:45:57.041Z,45.00
2019-03-19T15:47:49.381Z,46.10
2019-03-19T15:49:41.565Z,46.60
2019-03-19T15:51:34.047Z,47.60
2019-03-19T15:53:26.620Z,49.00
2019-03-19T15:55:18.608Z,49.10
2019-03-19T15:57:10.859Z,49.50
2019-03-19T15:59:02.987Z,49.90
2019-03-19T16:00:55.215Z,50.00
2019-03-19T16:02:47.527Z,51.20
2019-03-19T16:04:40.029Z,50.00
2019-03-19T16:06:32.301Z,51.60
2019-03-19T16:08:24.321Z,51.10
2019-03-19T16:10:18.005Z,50.80
2019-03-19T16:12:10.502Z,47.00
2019-03-19T16:14:03.052Z,46.30
2019-03-19T16:15:55.570Z,46.70
2019-03-19T16:17:47.981Z,49.20
2019-03-19T16:19:40.352Z,49.20
2019-03-19T16:21:32.868Z,47.40
2019-03-19T16:23:25.360Z,46.70
2019-03-19T16:25:17.631Z,48.00
2019-03-19T16:27:09.812Z,50.00
2019-03-19T16:29:01.964Z,50.40
2019-03-19T16:30:54.043Z,49.40
2019-03-19T16:32:46.402Z,51.10
2019-03-19T16:34:38.599Z,48.40
2019-03-19T16:36:30.748Z,47.50
2019-03-19T16:38:23.015Z,47.20
2019-03-19T16:40:21.705Z,48.90
2019-03-19T16:42:14.373Z,48.40
2019-03-19T16:44:07.100Z,48.40
2019-03-19T16:45:59.172Z,48.20
2019-03-19T16:47:51.636Z,47.70
2019-03-19T16:49:43.867Z,48.40
2019-03-19T16:51:36.357Z,49.30
2019-03-19T16:53:28.791Z,50.90
2019-03-19T16:55:21.428Z,49.90
2019-03-19T16:57:14.108Z,49.80
2019-03-19T16:59:06.497Z,50.80
2019-03-19T17:00:58.776Z,50.80
2019-03-19T17:02:51.627Z,50.90
2019-03-19T17:04:43.901Z,50.70
2019-03-19T17:06:36.476Z,49.90
2019-03-19T17:08:28.504Z,50.60
2019-03-19T17:10:25.083Z,51.90
2019-03-19T17:12:17.040Z,52.80
2019-03-19T17:14:09.102Z,51.30
2019-03-19T17:16:01.620Z,52.20
2019-03-19T17:17:54.009Z,52.50
2019-03-19T17:19:46.594Z,52.60
2019-03-19T17:21:38.981Z,52.80
2019-03-19T17:23:31.737Z,53.50
2019-03-19T17:25:24.780Z,53.10
2019-03-19T17:27:18.450Z,54.10
2019-03-19T17:29:11.024Z,54.10
2019-03-19T17:31:03.258Z,52.90
2019-03-19T17:32:55.670Z,53.80
2019-03-19T17:34:47.775Z,53.40
2019-03-19T17:36:39.713Z,55.30
2019-03-19T17:38:32.197Z,55.40
2019-03-19T17:40:24.403Z,55.30
2019-03-19T17:42:16.651Z,56.10
2019-03-19T17:44:08.821Z,56.00
2019-03-19T17:46:01.196Z,54.90
2019-03-19T17:47:53.093Z,56.00
2019-03-19T17:49:45.250Z,56.90
2019-03-19T17:51:37.100Z,56.50
2019-03-19T17:53:29.962Z,56.40
2019-03-19T17:55:22.754Z,56.00
2019-03-19T17:57:15.259Z,56.30
2019-03-19T17:59:07.825Z,56.30
2019-03-19T18:01:00.819Z,56.90
2019-03-19T18:02:53.718Z,56.90
2019-03-19T18:04:46.107Z,56.70
2019-03-19T18:06:38.661Z,56.10
2019-03-19T18:08:31.130Z,56.20
2019-03-19T18:10:23.258Z,56.20
2019-03-19T18:12:15.517Z,56.70
2019-03-19T18:14:08.043Z,56.70
2019-03-19T18:16:00.613Z,56.90
2019-03-19T18:17:52.668Z,57.20
2019-03-19T18:19:45.083Z,57.20
2019-03-19T18:21:37.608Z,58.20
2019-03-19T18:23:30.193Z,57.50
2019-03-19T18:25:22.431Z,57.70
2019-03-19T18:27:14.922Z,57.70
2019-03-19T18:29:07.215Z,59.70
2019-03-19T18:31:00.030Z,59.80
2019-03-19T18:32:52.050Z,59.50
2019-03-19T18:34:43.910Z,59.80
2019-03-19T18:36:36.275Z,62.00
2019-03-19T18:38:28.329Z,60.50
2019-03-19T18:40:21.054Z,61.50
2019-03-19T18:42:13.736Z,61.50
2019-03-19T18:44:07.193Z,62.90
2019-03-19T18:45:59.248Z,61.60
2019-03-19T18:47:51.475Z,63.00
2019-03-19T18:49:43.846Z,62.70
2019-03-19T18:51:36.240Z,64.50
2019-03-19T18:53:28.720Z,63.30
2019-03-19T18:55:21.201Z,64.40
2019-03-19T18:57:13.604Z,64.90
2019-03-19T18:59:05.975Z,61.40
2019-03-19T19:00:58.588Z,64.40
2019-03-19T19:02:51.314Z,64.00
2019-03-19T19:04:46.449Z,63.60
2019-03-19T19:06:38.940Z,66.50
2019-03-19T19:08:31.239Z,64.60
2019-03-19T19:10:23.100Z,63.90
2019-03-19T19:12:15.260Z,65.80
2019-03-19T19:14:09.552Z,65.80
2019-03-19T19:16:05.698Z,65.80
2019-03-19T19:18:01.199Z,65.10
2019-03-19T19:19:53.978Z,66.00
2019-03-19T19:21:47.509Z,65.50
2019-03-19T19:23:40.933Z,66.20
2019-03-19T19:25:35.145Z,64.90
2019-03-19T19:27:28.286Z,65.10
2019-03-19T19:29:22.831Z,66.20
2019-03-19T19:31:17.648Z,66.80
2019-03-19T19:33:11.323Z,67.00
2019-03-19T19:35:06.242Z,66.10
2019-03-19T19:37:01.296Z,65.90
2019-03-19T19:38:55.272Z,65.40
2019-03-19T19:40:49.800Z,65.90
2019-03-19T19:42:43.485Z,67.30
2019-03-19T19:44:38.286Z,68.30
2019-03-19T19:46:33.186Z,67.10
2019-03-19T19:48:26.887Z,67.30
2019-03-19T19:50:22.616Z,67.30
2019-03-19T19:52:16.055Z,66.70
2019-03-19T19:54:09.699Z,66.20
2019-03-19T19:56:03.417Z,64.90
2019-03-19T19:57:57.651Z,67.80
2019-03-19T19:59:51.022Z,65.40
2019-03-19T20:01:44.999Z,66.70
2019-03-19T20:03:38.403Z,65.10
2019-03-19T20:05:34.182Z,68.10
2019-03-19T20:07:28.775Z,68.30
2019-03-19T20:09:23.362Z,67.80
2019-03-19T20:11:16.967Z,67.40
2019-03-19T20:13:10.572Z,69.10
2019-03-19T20:15:05.878Z,66.90
2019-03-19T20:16:59.833Z,68.60
2019-03-19T20:18:53.866Z,67.80
2019-03-19T20:20:47.304Z,67.90
2019-03-19T20:22:40.893Z,68.70
2019-03-19T20:24:36.907Z,70.10
2019-03-19T20:26:31.271Z,69.90
2019-03-19T20:28:26.177Z,68.60
2019-03-19T20:30:20.986Z,69.60
2019-03-19T20:32:14.785Z,69.70
2019-03-19T20:34:08.570Z,69.50
2019-03-19T20:36:04.403Z,71.00
2019-03-19T20:37:58.153Z,70.80
2019-03-19T20:39:52.171Z,70.40
2019-03-19T20:41:45.853Z,70.60
2019-03-19T20:43:39.519Z,69.60
2019-03-19T20:45:34.011Z,72.70
2019-03-19T20:47:27.924Z,71.30
2019-03-19T20:49:23.748Z,71.20
2019-03-19T20:51:17.519Z,71.30
2019-03-19T20:53:11.693Z,70.60
2019-03-19T20:55:06.139Z,71.30
2019-03-19T20:57:00.928Z,70.30
2019-03-19T20:58:56.978Z,71.00
2019-03-19T21:00:50.896Z,71.70
2019-03-19T21:02:44.996Z,71.10
2019-03-19T21:04:38.671Z,71.50
2019-03-19T21:06:32.315Z,71.40
2019-03-19T21:08:26.024Z,70.30
2019-03-19T21:10:20.688Z,70.40
2019-03-19T21:12:13.802Z,71.20
2019-03-19T21:14:07.067Z,70.40
2019-03-19T21:16:00.316Z,70.90
2019-03-19T21:17:53.318Z,71.10
2019-03-19T21:19:45.932Z,72.20
2019-03-19T21:21:38.232Z,70.90
2019-03-19T21:23:30.501Z,72.20
2019-03-19T21:25:22.720Z,70.50
2019-03-19T21:27:15.137Z,71.70
2019-03-19T21:29:07.367Z,71.20
2019-03-19T21:31:00.629Z,72.20
2019-03-19T21:32:52.547Z,72.80
2019-03-19T21:34:44.921Z,71.40
2019-03-19T21:36:37.036Z,69.80
2019-03-19T21:38:29.181Z,69.80
2019-03-19T21:40:21.433Z,70.20
2019-03-19T21:42:13.292Z,70.70
2019-03-19T21:44:05.901Z,70.80
2019-03-19T21:45:58.065Z,70.00
2019-03-19T21:47:50.440Z,68.60
2019-03-19T21:49:45.091Z,69.00
2019-03-19T21:51:37.046Z,69.10
2019-03-19T21:53:29.284Z,69.90
2019-03-19T21:55:21.484Z,69.60
2019-03-19T21:57:14.927Z,69.60
2019-03-19T21:59:07.235Z,72.20
2019-03-19T22:00:59.512Z,70.30
2019-03-19T22:02:51.746Z,70.30
2019-03-19T22:04:44.032Z,70.50
2019-03-19T22:06:36.051Z,71.40
2019-03-19T22:08:28.104Z,72.30
2019-03-19T22:10:20.449Z,71.70
2019-03-19T22:12:12.395Z,73.00
2019-03-19T22:14:04.677Z,73.80
2019-03-19T22:15:57.845Z,74.50
2019-03-19T22:17:51.551Z,74.30
2019-03-19T22:19:43.717Z,73.90
2019-03-19T22:21:36.169Z,72.70
2019-03-19T22:23:28.325Z,73.00
2019-03-19T22:25:20.645Z,73.00
2019-03-19T22:27:13.050Z,73.20
2019-03-19T22:29:05.245Z,73.00
2019-03-19T22:30:57.508Z,73.60
2019-03-19T22:32:49.892Z,74.60
2019-03-19T22:34:41.880Z,73.60
2019-03-19T22:36:34.124Z,74.90
2019-03-19T22:38:26.308Z,74.00
2019-03-19T22:40:18.561Z,74.10
2019-03-19T22:42:10.805Z,74.40
2019-03-19T22:44:02.764Z,73.30
2019-03-19T22:45:55.139Z,74.10
2019-03-19T22:47:47.306Z,74.60
2019-03-19T22:49:39.609Z,73.90
2019-03-19T22:51:31.554Z,76.10
2019-03-19T22:53:23.772Z,75.80
2019-03-19T22:55:16.211Z,74.20
2019-03-19T22:57:08.755Z,73.90
2019-03-19T22:59:00.996Z,73.70
2019-03-19T23:00:53.934Z,73.40
2019-03-19T23:02:46.139Z,74.20
2019-03-19T23:04:38.442Z,75.60
2019-03-19T23:06:30.733Z,74.30
2019-03-19T23:08:23.175Z,74.80
2019-03-19T23:10:15.132Z,74.20
2019-03-19T23:12:07.132Z,73.20
2019-03-19T23:13:59.520Z,72.40
2019-03-19T23:15:52.101Z,72.10
2019-03-19T23:17:44.293Z,72.10
2019-03-19T23:19:36.501Z,72.40
2019-03-19T23:21:28.639Z,70.00
2019-03-19T23:23:20.747Z,68.00
2019-03-19T23:25:13.588Z,68.00
2019-03-19T23:27:05.953Z,68.70
2019-03-19T23:28:58.432Z,70.10
2019-03-19T23:30:50.348Z,69.50
2019-03-19T23:32:42.518Z,70.30
2019-03-19T23:34:38.417Z,71.10
2019-03-19T23:36:28.633Z,71.80
2019-03-19T23:38:20.872Z,74.10
2019-03-19T23:40:14.087Z,72.90
2019-03-19T23:42:06.522Z,72.80
2019-03-19T23:43:58.728Z,73.00
2019-03-19T23:45:51.220Z,71.90
2019-03-19T23:47:44.019Z,70.70
2019-03-19T23:49:35.973Z,68.20
2019-03-19T23:51:28.361Z,67.90
2019-03-19T23:53:28.851Z,68.20
2019-03-19T23:55:21.067Z,69.50
2019-03-19T23:57:13.396Z,69.30
2019-03-19T23:59:05.721Z,70.80
